Terminal Aerodrome Forecast
Issued by NWS

Home | Current Version | Previous Version | Text Only | Print | Product List | Glossary On
Versions: 1 2 3 4 5 6 7 8 9 10 11 12 13 14 15 16 17 18
000
FTUS42 KJAX 271130
TAFCRG
TAF
KCRG 271130Z 2712/2812 09010KT P6SM VCSH SCT025 OVC050
     FM271400 11013G23KT 3SM SHRA VCTS BKN015 OVC030CB
     FM280000 14013KT P6SM VCSH OVC025=

USA.gov is the U.S. government's official web portal to all federal, state and local government web resources and services.